Gy?r-Per International Airport


Codes: LHPR/QGY
Name: Gy?r-Per International Airport
City: Gy?r
Country: Hungary
Elevation: 424 ft.
Website:
Wikipedia:

Photos at Gy?r-Per International Airport


   Photos courtesy of SpottingLog. You can add your own sightings and photos by signing up for a free trial today.



No photos found.

Weather at Gy?r-Per International Airport


Time (UTC)DescriptionTempratureWindCloud coverageVisibilityPressureHumidity
25-Jun-2024 15:00Overcast Clouds28°C7 mph, E100%10000m1014hPa42%
25-Jun-2024 18:00Overcast Clouds27°C7 mph, E94%10000m1014hPa50%
25-Jun-2024 21:00Broken Clouds23°C7 mph, SE64%10000m1014hPa58%
26-Jun-2024 00:00Broken Clouds19°C7 mph, SE61%10000m1014hPa71%
26-Jun-2024 03:00Overcast Clouds18°C7 mph, E100%10000m1013hPa78%
26-Jun-2024 06:00Overcast Clouds21°C11 mph, SE100%10000m1014hPa77%
26-Jun-2024 09:00Overcast Clouds26°C9 mph, SE97%10000m1013hPa66%
26-Jun-2024 12:00Broken Clouds30°C11 mph, SE79%10000m1012hPa47%
26-Jun-2024 15:00Scattered Clouds31°C11 mph, SE46%10000m1010hPa43%
26-Jun-2024 18:00Broken Clouds26°C16 mph, SE62%10000m1009hPa62%
26-Jun-2024 21:00Moderate Rain17°C4 mph, NE100%8596m1011hPa91%
27-Jun-2024 00:00Light Rain17°C4 mph, E93%10000m1011hPa87%
27-Jun-2024 03:00Overcast Clouds17°C4 mph, SE100%10000m1011hPa84%
27-Jun-2024 06:00Light Rain21°C2 mph, E77%10000m1011hPa73%
27-Jun-2024 09:00Light Rain26°C2 mph, S21%10000m1011hPa57%
27-Jun-2024 12:00Light Rain26°C4 mph, E49%10000m1011hPa60%
27-Jun-2024 15:00Broken Clouds28°C2 mph, E73%10000m1010hPa52%
27-Jun-2024 18:00Light Rain24°C11 mph, E71%10000m1010hPa72%
27-Jun-2024 21:00Light Rain19°C9 mph, SE100%10000m1012hPa85%
28-Jun-2024 00:00Light Rain18°C2 mph, SE92%10000m1013hPa86%
28-Jun-2024 03:00Few Clouds17°C2 mph, S22%10000m1013hPa91%
28-Jun-2024 06:00Few Clouds22°C2 mph, S17%10000m1015hPa81%
28-Jun-2024 09:00Few Clouds27°C4 mph, NW20%10000m1015hPa58%
28-Jun-2024 12:00Few Clouds30°C7 mph, NW22%10000m1015hPa48%
28-Jun-2024 15:00Broken Clouds31°C9 mph, N55%10000m1015hPa46%
28-Jun-2024 18:00Broken Clouds27°C4 mph, N65%10000m1016hPa68%
28-Jun-2024 21:00Scattered Clouds23°C4 mph, S40%10000m1017hPa75%
29-Jun-2024 00:00Few Clouds22°C4 mph, W20%10000m1017hPa76%
29-Jun-2024 03:00Clear Sky20°C2 mph, W2%10000m1017hPa84%
29-Jun-2024 06:00Clear Sky25°C0 mph, E4%10000m1017hPa68%
29-Jun-2024 09:00Scattered Clouds30°C2 mph, SE39%10000m1016hPa52%
29-Jun-2024 12:00Few Clouds33°C4 mph, SE21%10000m1014hPa38%
29-Jun-2024 15:00Few Clouds34°C11 mph, SE14%10000m1012hPa38%
29-Jun-2024 18:00Scattered Clouds28°C7 mph, SE38%10000m1012hPa55%
29-Jun-2024 21:00Clear Sky25°C9 mph, SE0%10000m1011hPa63%
30-Jun-2024 00:00Clear Sky25°C11 mph, SE6%10000m1009hPa59%
30-Jun-2024 03:00Clear Sky24°C11 mph, SE5%10000m1009hPa58%
30-Jun-2024 06:00Clear Sky27°C7 mph, S3%10000m1009hPa52%
30-Jun-2024 09:00Clear Sky32°C9 mph, SW3%10000m1009hPa37%
30-Jun-2024 12:00Scattered Clouds35°C11 mph, SW33%10000m1007hPa34%